Elizabeth, Pennsylvania
Current Conditions -  °F | °C
As of 11:53 AM on Monday 22 Dec 2014 (Local Time) from KAGC Reporting Station
Overcast Overcast  
Wind Chill: 35°   Ceiling: 4600
Heat Index: 39°   Visibility: 7mi
Dew Point: 26°   Wind: 6mph
Humidity: 60%   Direction: 120°ESE
Pressure: 30.06"   Gusts: NA
Location:  40.27°N, 79.89°W
Report Text: KAGC 221653Z 12005KT 7SM OVC046 04/M03 A3006 RMK AO2 SLP197 T00391033
Loading
Personal Weather Stations






























Interactive Weather Map New forecast layout! Learn more

10-Day Weather Forecast

Advertisements
Track Severe Weather on mobile